Time;durP1;ratioP1;P1;durP2;ratioP2;P2;SDS_P1;SDS_P2;PMS_P1;PMS_P2;Temp;Humidity;BMP_temperature;BMP_pressure;BME280_temperature;BME280_humidity;BME280_pressure;Samples;Min_cycle;Max_cycle;Signal;HPM_P1;HPM_P2
2023/03/06 00:00:53;;;;;;;8.23;2.35;;;2.10;99.90;;;;;;5055042;28;20036;-78
2023/03/06 00:03:19;;;;;;;8.00;2.20;;;2.00;99.90;;;;;;5072122;28;20139;-78
2023/03/06 00:05:45;;;;;;;7.80;2.47;;;2.40;99.90;;;;;;5037942;28;20044;-79
2023/03/06 00:08:11;;;;;;;10.48;2.47;;;2.00;99.90;;;;;;5072781;28;20102;-78
2023/03/06 00:10:39;;;;;;;7.35;2.22;;;2.00;99.90;;;;;;5053438;28;20504;-79
2023/03/06 00:13:07;;;;;;;10.10;2.67;;;2.00;99.90;;;;;;5072219;28;20082;-78
2023/03/06 00:15:33;;;;;;;10.25;2.70;;;2.10;99.90;;;;;;5070511;28;20052;-79
2023/03/06 00:18:01;;;;;;;8.73;2.58;;;2.10;99.90;;;;;;5073648;28;20044;-78
2023/03/06 00:20:27;;;;;;;8.27;2.90;;;2.20;99.90;;;;;;5071547;28;20056;-78
2023/03/06 00:22:55;;;;;;;7.82;2.50;;;2.20;99.90;;;;;;5072401;28;20052;-79
2023/03/06 00:25:21;;;;;;;7.88;2.60;;;2.20;99.90;;;;;;5067003;28;20057;-79
2023/03/06 00:27:48;;;;;;;6.80;2.28;;;2.20;99.90;;;;;;5070144;28;20087;-78
2023/03/06 00:30:19;;;;;;;9.27;2.30;;;2.20;99.90;;;;;;5067804;28;20079;-79
2023/03/06 00:32:45;;;;;;;8.35;2.55;;;2.20;99.90;;;;;;5069193;28;20044;-79
2023/03/06 00:35:11;;;;;;;7.25;2.58;;;2.20;99.90;;;;;;5055315;28;20048;-78
2023/03/06 00:37:37;;;;;;;8.48;2.55;;;2.30;99.90;;;;;;5071179;28;20055;-79
2023/03/06 00:40:11;;;;;;;6.93;2.45;;;2.30;99.90;;;;;;5070227;28;20040;-78
2023/03/06 00:42:38;;;;;;;6.25;2.13;;;2.30;99.90;;;;;;5071710;28;20119;-78
2023/03/06 00:45:04;;;;;;;7.57;2.35;;;2.40;99.90;;;;;;5055463;28;20068;-79
2023/03/06 00:47:29;;;;;;;7.05;2.45;;;2.30;99.90;;;;;;5072323;28;20040;-78
2023/03/06 00:49:55;;;;;;;9.70;2.40;;;2.30;99.90;;;;;;5072159;28;20055;-79
2023/03/06 00:52:21;;;;;;;9.32;2.72;;;2.40;99.90;;;;;;5071730;28;20056;-78
2023/03/06 00:54:46;;;;;;;9.98;2.40;;;2.40;99.90;;;;;;5051689;28;20080;-79
2023/03/06 00:57:12;;;;;;;7.78;2.28;;;2.40;99.90;;;;;;5070887;28;20511;-79
2023/03/06 00:59:38;;;;;;;6.63;2.40;;;2.40;99.90;;;;;;5070862;28;20384;-79
2023/03/06 01:02:04;;;;;;;10.32;2.60;;;2.40;99.90;;;;;;5072242;28;20048;-79
2023/03/06 01:04:30;;;;;;;9.15;2.38;;;2.30;99.90;;;;;;5055130;28;20123;-79
2023/03/06 01:06:56;;;;;;;9.35;2.45;;;2.40;99.90;;;;;;5070277;28;20480;-79
2023/03/06 01:09:22;;;;;;;7.15;2.38;;;2.30;99.90;;;;;;5070820;28;20053;-79
2023/03/06 01:11:47;;;;;;;7.20;2.60;;;2.30;99.90;;;;;;5068805;28;20056;-79
2023/03/06 01:14:13;;;;;;;8.52;2.50;;;2.30;99.90;;;;;;5070326;28;20049;-79
2023/03/06 01:16:39;;;;;;;7.18;2.40;;;2.30;99.90;;;;;;5067040;28;20079;-79
2023/03/06 01:19:04;;;;;;;9.05;2.47;;;2.30;99.90;;;;;;5072628;28;20392;-79
2023/03/06 01:21:30;;;;;;;7.47;2.38;;;2.30;99.90;;;;;;5070376;28;20044;-78
2023/03/06 01:23:56;;;;;;;8.38;2.53;;;2.30;99.90;;;;;;5072227;28;20538;-79
2023/03/06 01:26:22;;;;;;;8.13;2.35;;;2.30;99.90;;;;;;5053900;28;20048;-79
2023/03/06 01:28:47;;;;;;;7.53;2.60;;;2.30;99.90;;;;;;5071261;28;20476;-79
2023/03/06 01:31:13;;;;;;;7.65;2.35;;;2.30;99.90;;;;;;5071321;28;20097;-79
2023/03/06 01:33:39;;;;;;;7.63;2.55;;;2.40;99.90;;;;;;5054369;28;20052;-78
2023/03/06 01:36:07;;;;;;;7.97;2.60;;;2.30;99.90;;;;;;5069891;28;20056;-78
2023/03/06 01:38:34;;;;;;;9.63;2.75;;;2.40;99.90;;;;;;5071123;28;20053;-79
2023/03/06 01:41:02;;;;;;;8.43;2.53;;;2.40;99.90;;;;;;5070255;28;20060;-79
2023/03/06 01:43:29;;;;;;;7.97;2.75;;;2.60;99.90;;;;;;5070536;28;20519;-79
2023/03/06 01:46:23;;;;;;;9.95;2.78;;;2.40;99.90;;;;;;5070554;28;20047;-78
2023/03/06 01:48:53;;;;;;;9.18;2.60;;;2.40;99.90;;;;;;5069817;28;20076;-79
2023/03/06 01:51:19;;;;;;;6.97;2.60;;;2.40;99.90;;;;;;5069138;28;20056;-79
2023/03/06 01:53:47;;;;;;;6.90;2.45;;;2.40;99.90;;;;;;5070710;28;20498;-79
2023/03/06 01:56:13;;;;;;;7.80;3.05;;;2.50;99.90;;;;;;5053018;28;20040;-79
2023/03/06 01:58:42;;;;;;;8.93;2.92;;;2.40;99.90;;;;;;5069095;28;20171;-79
2023/03/06 02:01:10;;;;;;;8.27;3.00;;;2.50;99.90;;;;;;5052032;28;20056;-79
2023/03/06 02:03:37;;;;;;;9.05;2.83;;;2.50;99.90;;;;;;5069956;28;20049;-78
2023/03/06 02:06:03;;;;;;;7.43;2.90;;;2.50;99.90;;;;;;5070540;28;20098;-79
2023/03/06 02:08:30;;;;;;;8.52;2.92;;;2.50;99.90;;;;;;5051402;28;20041;-78
2023/03/06 02:11:09;;;;;;;7.65;2.80;;;2.50;99.90;;;;;;5066099;28;20548;-79
2023/03/06 02:13:37;;;;;;;5.65;2.30;;;2.50;99.90;;;;;;5069590;28;20084;-79
2023/03/06 02:16:03;;;;;;;8.93;2.80;;;2.50;99.90;;;;;;5070067;28;21618;-79
2023/03/06 02:18:29;;;;;;;7.70;2.90;;;2.50;99.90;;;;;;5053311;28;20049;-79
2023/03/06 02:21:02;;;;;;;8.60;3.40;;;3.20;99.90;;;;;;5066251;28;20131;-79
2023/03/06 02:23:52;;;;;;;7.80;3.20;;;2.60;99.90;;;;;;5071324;28;20585;-79
2023/03/06 02:26:19;;;;;;;8.43;3.35;;;2.60;99.90;;;;;;5052640;28;20049;-79
2023/03/06 02:28:45;;;;;;;7.85;3.40;;;2.60;99.90;;;;;;5069835;28;20056;-79
2023/03/06 02:31:27;;;;;;;7.75;3.50;;;2.60;99.90;;;;;;5052505;28;20193;-79
2023/03/06 02:34:02;;;;;;;8.10;3.10;;;2.60;99.90;;;;;;5067979;28;20060;-79
2023/03/06 02:36:29;;;;;;;9.13;3.38;;;2.60;99.90;;;;;;5067481;28;20533;-79
2023/03/06 02:38:56;;;;;;;10.02;3.67;;;2.50;99.90;;;;;;5052019;28;20488;-79
2023/03/06 02:41:21;;;;;;;9.25;3.55;;;2.60;99.90;;;;;;5065986;28;20454;-79
2023/03/06 02:43:49;;;;;;;7.97;3.28;;;2.60;99.90;;;;;;5069017;28;20131;-79
2023/03/06 02:46:15;;;;;;;7.85;3.55;;;2.60;99.90;;;;;;5067355;28;20067;-79
2023/03/06 02:48:40;;;;;;;9.57;3.38;;;2.70;99.90;;;;;;5068608;28;20044;-79
2023/03/06 02:51:06;;;;;;;10.52;3.60;;;2.80;99.90;;;;;;5064245;28;20501;-79
2023/03/06 02:53:32;;;;;;;8.70;3.50;;;2.60;99.90;;;;;;5068194;28;20499;-79
2023/03/06 02:55:57;;;;;;;6.60;3.42;;;2.70;99.90;;;;;;5033916;28;20045;-79
2023/03/06 02:58:23;;;;;;;9.52;4.00;;;2.70;99.90;;;;;;5068950;28;20040;-79
2023/03/06 03:00:49;;;;;;;9.35;4.60;;;2.70;99.90;;;;;;5069343;28;20566;-79
2023/03/06 03:03:15;;;;;;;10.15;3.85;;;2.70;99.90;;;;;;5050635;28;20041;-79
2023/03/06 03:05:41;;;;;;;8.20;3.85;;;2.70;99.90;;;;;;5066647;28;20052;-79
2023/03/06 03:08:07;;;;;;;9.82;4.30;;;2.70;99.90;;;;;;5067170;28;20110;-79
2023/03/06 03:10:34;;;;;;;9.48;4.07;;;2.70;99.90;;;;;;5067224;28;20114;-80
2023/03/06 03:12:59;;;;;;;8.82;4.20;;;2.70;99.90;;;;;;5069074;28;20447;-80
2023/03/06 03:15:25;;;;;;;9.70;4.60;;;2.70;99.90;;;;;;5067781;28;20052;-80
2023/03/06 03:17:51;;;;;;;8.75;4.55;;;2.70;99.90;;;;;;5066335;28;20056;-81
2023/03/06 03:20:19;;;;;;;8.02;3.90;;;2.70;99.90;;;;;;5068856;28;20736;-82
2023/03/06 03:22:50;;;;;;;7.60;4.05;;;2.70;99.90;;;;;;5067184;28;20503;-82
2023/03/06 03:25:16;;;;;;;10.00;4.60;;;2.70;99.90;;;;;;5066280;28;20102;-83
2023/03/06 03:27:41;;;;;;;9.13;4.80;;;2.70;99.90;;;;;;5036619;28;20052;-84
2023/03/06 03:30:09;;;;;;;9.20;4.78;;;2.70;99.90;;;;;;5067273;28;20081;-84
2023/03/06 03:32:34;;;;;;;8.30;4.20;;;2.60;99.90;;;;;;5069486;28;20113;-84
2023/03/06 03:35:00;;;;;;;8.85;4.60;;;2.60;99.90;;;;;;5069516;28;20048;-84
2023/03/06 03:37:26;;;;;;;9.85;4.97;;;2.60;99.90;;;;;;5068462;28;20052;-84
2023/03/06 03:39:52;;;;;;;10.40;5.00;;;2.60;99.90;;;;;;5065442;28;20428;-84
2023/03/06 03:42:17;;;;;;;9.80;4.68;;;2.60;99.90;;;;;;5068642;28;20049;-84
2023/03/06 03:44:43;;;;;;;8.88;4.38;;;2.60;99.90;;;;;;5052776;28;20093;-83
2023/03/06 03:47:09;;;;;;;10.23;4.07;;;2.50;99.90;;;;;;5070313;28;20048;-83
2023/03/06 03:49:34;;;;;;;9.30;3.90;;;2.50;99.90;;;;;;5051048;28;20048;-83
2023/03/06 03:52:00;;;;;;;5.85;2.58;;;2.50;99.90;;;;;;5068649;28;20049;-82
2023/03/06 03:54:26;;;;;;;5.35;2.40;;;2.40;99.90;;;;;;5068640;28;20496;-82
2023/03/06 03:56:51;;;;;;;6.32;2.70;;;2.10;99.90;;;;;;5068634;28;20127;-82
2023/03/06 03:59:17;;;;;;;5.55;2.60;;;2.60;99.90;;;;;;5070229;28;20146;-82
2023/03/06 04:01:44;;;;;;;6.18;2.20;;;1.90;99.90;;;;;;5050136;28;20048;-83
2023/03/06 04:04:10;;;;;;;5.45;2.67;;;1.80;99.90;;;;;;5052346;28;20049;-82
2023/03/06 04:06:36;;;;;;;5.10;2.50;;;1.70;99.90;;;;;;5067706;28;20376;-81
2023/03/06 04:09:03;;;;;;;5.38;2.50;;;1.70;99.90;;;;;;5069085;28;20060;-81
2023/03/06 04:11:29;;;;;;;5.00;2.50;;;1.50;99.90;;;;;;5066368;28;20382;-81
2023/03/06 04:13:55;;;;;;;4.55;2.30;;;2.20;99.90;;;;;;5055875;28;20057;-80
2023/03/06 04:16:21;;;;;;;4.95;2.28;;;1.50;99.90;;;;;;5072397;28;20113;-80
2023/03/06 04:18:46;;;;;;;4.80;2.63;;;1.40;99.90;;;;;;5072012;28;20165;-80
2023/03/06 04:21:12;;;;;;;4.60;2.45;;;1.40;99.90;;;;;;5070526;28;20415;-79
2023/03/06 04:23:38;;;;;;;5.20;2.60;;;1.40;99.90;;;;;;5071094;28;20472;-79
2023/03/06 04:26:04;;;;;;;5.07;2.83;;;1.70;99.90;;;;;;5068708;28;20098;-79
2023/03/06 04:28:30;;;;;;;5.38;2.60;;;1.40;99.90;;;;;;5055798;28;20098;-79
2023/03/06 04:30:55;;;;;;;5.50;3.30;;;1.30;99.90;;;;;;5071037;28;20101;-79
2023/03/06 04:33:21;;;;;;;5.28;3.10;;;1.30;99.90;;;;;;5071870;28;20084;-79
2023/03/06 04:35:47;;;;;;;7.05;3.90;;;1.30;99.90;;;;;;5070446;28;20105;-79
2023/03/06 04:38:13;;;;;;;6.03;3.58;;;1.30;99.90;;;;;;5071003;28;20053;-78
2023/03/06 04:40:39;;;;;;;6.13;3.60;;;1.30;99.90;;;;;;5051692;28;20055;-78
2023/03/06 04:43:05;;;;;;;5.78;3.35;;;1.30;99.90;;;;;;5072353;28;20094;-78
2023/03/06 04:45:32;;;;;;;5.90;3.50;;;1.30;99.90;;;;;;5054467;28;20077;-78
2023/03/06 04:47:58;;;;;;;13.73;7.43;;;1.20;99.90;;;;;;5070651;28;20110;-78
2023/03/06 04:50:24;;;;;;;13.00;7.88;;;1.20;99.90;;;;;;5072383;28;20084;-78
2023/03/06 04:52:51;;;;;;;13.63;7.70;;;1.70;99.90;;;;;;5071844;28;20052;-78
2023/03/06 04:55:17;;;;;;;8.02;4.32;;;1.20;99.90;;;;;;5071287;28;20449;-78
2023/03/06 04:57:45;;;;;;;5.80;3.05;;;1.40;99.90;;;;;;5070453;28;20484;-78
2023/03/06 05:00:21;;;;;;;5.60;2.92;;;1.20;99.90;;;;;;5070636;28;20091;-79
2023/03/06 05:02:47;;;;;;;7.32;3.22;;;1.20;99.90;;;;;;5071166;28;20072;-79
2023/03/06 05:05:14;;;;;;;5.68;3.25;;;1.20;99.90;;;;;;5071937;28;20389;-79
2023/03/06 05:07:40;;;;;;;7.68;3.30;;;1.20;99.90;;;;;;5071826;28;20072;-79
2023/03/06 05:10:10;;;;;;;6.45;3.22;;;1.20;99.90;;;;;;5069788;28;20061;-79
2023/03/06 05:12:36;;;;;;;6.03;3.22;;;1.10;99.90;;;;;;5055044;28;20056;-79
2023/03/06 05:15:03;;;;;;;5.97;3.10;;;1.10;99.90;;;;;;5068290;28;20049;-79
2023/03/06 05:17:29;;;;;;;5.82;3.05;;;1.10;99.90;;;;;;5071865;28;20049;-79
2023/03/06 05:19:54;;;;;;;6.22;2.92;;;1.20;99.90;;;;;;5068164;28;20123;-79
2023/03/06 05:22:20;;;;;;;6.10;3.00;;;1.20;99.90;;;;;;5069798;28;20044;-79
2023/03/06 05:24:46;;;;;;;5.85;3.40;;;1.20;99.90;;;;;;5070594;28;20044;-79
2023/03/06 05:27:12;;;;;;;5.85;2.90;;;1.30;99.90;;;;;;5071354;28;20492;-79
2023/03/06 05:29:37;;;;;;;5.65;3.13;;;1.40;99.90;;;;;;5070853;28;20044;-79
2023/03/06 05:32:03;;;;;;;5.45;2.95;;;1.20;99.90;;;;;;5053914;28;20036;-79
2023/03/06 05:34:29;;;;;;;6.10;3.40;;;1.20;99.90;;;;;;5068910;28;20048;-79
2023/03/06 05:36:55;;;;;;;6.05;3.50;;;1.20;99.90;;;;;;5069127;28;20523;-79
2023/03/06 05:39:21;;;;;;;6.55;3.42;;;1.20;99.90;;;;;;5072061;28;20049;-78
2023/03/06 05:41:46;;;;;;;5.90;3.17;;;1.20;99.90;;;;;;5069347;28;20506;-78
2023/03/06 05:44:12;;;;;;;6.00;3.28;;;1.20;99.90;;;;;;5054591;28;20055;-78
2023/03/06 05:46:38;;;;;;;5.55;3.08;;;1.20;99.90;;;;;;5070689;28;20056;-78
2023/03/06 05:49:04;;;;;;;5.90;2.78;;;1.20;99.90;;;;;;5066814;28;20040;-78
2023/03/06 05:51:29;;;;;;;5.50;2.70;;;1.50;99.90;;;;;;5050534;28;20057;-78
2023/03/06 05:53:55;;;;;;;12.38;7.93;;;1.30;99.90;;;;;;5067240;28;20044;-79
2023/03/06 05:56:21;;;;;;;11.25;7.00;;;1.20;99.90;;;;;;5053351;28;20056;-79
2023/03/06 05:58:47;;;;;;;7.60;4.50;;;1.30;99.90;;;;;;5069748;28;20097;-79
2023/03/06 06:01:18;;;;;;;33.25;26.00;;;1.20;99.90;;;;;;5066309;28;20386;-79
2023/03/06 06:03:44;;;;;;;9.65;6.85;;;1.30;99.90;;;;;;5070436;28;20425;-79
2023/03/06 06:06:12;;;;;;;8.52;4.70;;;1.60;99.90;;;;;;5054096;28;20048;-79
2023/03/06 06:08:38;;;;;;;6.50;3.55;;;1.30;99.90;;;;;;5047670;28;20040;-79
2023/03/06 06:11:05;;;;;;;7.10;3.40;;;1.30;99.90;;;;;;5065034;28;20087;-79
2023/03/06 06:13:31;;;;;;;6.95;3.50;;;1.30;99.90;;;;;;5075872;28;20466;-79
2023/03/06 06:15:57;;;;;;;5.82;3.25;;;1.30;99.90;;;;;;5070679;28;20051;-79
2023/03/06 06:18:23;;;;;;;7.13;3.78;;;1.30;99.90;;;;;;5068808;28;20048;-79
2023/03/06 06:20:48;;;;;;;6.68;3.20;;;1.30;99.90;;;;;;5051265;28;20051;-79
2023/03/06 06:23:14;;;;;;;5.53;2.92;;;1.30;99.90;;;;;;5070503;28;20040;-79
2023/03/06 06:25:40;;;;;;;5.63;2.78;;;1.30;99.90;;;;;;5068150;28;20055;-79
2023/03/06 06:28:06;;;;;;;5.68;2.90;;;1.30;99.90;;;;;;5068949;28;20487;-79
2023/03/06 06:30:32;;;;;;;8.20;2.67;;;1.30;99.90;;;;;;5069881;28;20412;-79
2023/03/06 06:32:58;;;;;;;6.30;3.05;;;1.30;99.90;;;;;;5053164;28;20048;-79
2023/03/06 06:35:25;;;;;;;8.15;4.60;;;1.40;99.90;;;;;;5065887;28;20045;-79
2023/03/06 06:37:50;;;;;;;5.53;2.95;;;1.30;99.90;;;;;;5069997;28;20127;-79
2023/03/06 06:40:17;;;;;;;6.43;3.08;;;1.40;99.90;;;;;;5064734;28;20136;-79
2023/03/06 06:42:45;;;;;;;7.22;3.35;;;1.40;99.90;;;;;;5067623;28;20054;-79
2023/03/06 06:45:12;;;;;;;5.70;3.00;;;1.40;99.90;;;;;;5065473;28;20044;-79
2023/03/06 06:47:41;;;;;;;6.60;2.90;;;1.40;99.90;;;;;;5065868;28;20472;-79
2023/03/06 06:50:11;;;;;;;5.57;2.92;;;1.40;99.90;;;;;;5067139;28;20048;-79
2023/03/06 06:52:37;;;;;;;7.75;2.80;;;1.40;99.90;;;;;;5066102;28;20484;-79
2023/03/06 06:55:03;;;;;;;4.90;2.60;;;1.40;99.90;;;;;;5061881;28;20044;-79
2023/03/06 06:57:29;;;;;;;5.60;2.80;;;1.40;99.90;;;;;;5068041;28;20084;-79
2023/03/06 06:59:55;;;;;;;6.30;2.80;;;1.40;99.90;;;;;;5067995;28;20083;-79
2023/03/06 07:02:21;;;;;;;6.65;2.55;;;1.40;99.90;;;;;;5067850;28;20079;-79
2023/03/06 07:04:47;;;;;;;5.75;2.83;;;1.40;99.90;;;;;;5065248;28;20043;-79
2023/03/06 07:07:12;;;;;;;5.75;2.83;;;1.50;99.90;;;;;;5067980;28;20048;-79
2023/03/06 07:09:41;;;;;;;6.78;2.95;;;1.50;99.90;;;;;;5067067;28;20389;-79
2023/03/06 07:12:07;;;;;;;7.15;3.35;;;1.60;99.90;;;;;;5067113;28;20048;-79
2023/03/06 07:14:33;;;;;;;6.05;2.97;;;1.80;99.90;;;;;;5068681;28;20055;-79
2023/03/06 07:16:59;;;;;;;5.60;2.70;;;1.80;99.90;;;;;;5069080;28;20036;-79
2023/03/06 07:19:25;;;;;;;6.18;2.97;;;1.90;99.90;;;;;;5059973;28;20101;-79
2023/03/06 07:21:50;;;;;;;8.20;4.15;;;2.00;99.90;;;;;;5042757;28;20130;-79
2023/03/06 07:24:16;;;;;;;7.72;4.53;;;2.10;99.90;;;;;;5044178;28;20051;-80
2023/03/06 07:26:48;;;;;;;7.07;3.97;;;2.20;99.90;;;;;;5064002;28;20052;-80
2023/03/06 07:29:14;;;;;;;6.22;3.53;;;2.30;99.90;;;;;;5061491;28;20040;-80
2023/03/06 07:31:40;;;;;;;6.22;3.50;;;2.40;99.90;;;;;;5066054;28;20477;-80
2023/03/06 07:34:06;;;;;;;6.18;3.28;;;2.50;99.90;;;;;;5068377;28;20045;-80
2023/03/06 07:36:33;;;;;;;8.98;4.68;;;2.40;99.90;;;;;;5051726;28;20051;-80
2023/03/06 07:38:59;;;;;;;9.45;5.05;;;2.40;99.90;;;;;;5050172;28;20056;-80
2023/03/06 07:41:24;;;;;;;7.10;3.50;;;2.30;99.90;;;;;;5067408;28;20180;-80
2023/03/06 07:43:50;;;;;;;5.50;2.40;;;2.20;99.90;;;;;;5049194;28;20160;-80
2023/03/06 07:46:16;;;;;;;5.53;2.60;;;2.20;99.90;;;;;;5066683;28;20051;-80
2023/03/06 07:48:42;;;;;;;5.25;2.17;;;2.20;99.90;;;;;;5052819;28;20048;-80
2023/03/06 07:51:13;;;;;;;11.82;6.07;;;2.20;99.90;;;;;;5072327;28;20037;-80
2023/03/06 07:53:39;;;;;;;9.50;5.30;;;2.20;99.90;;;;;;5071872;28;20048;-80
2023/03/06 07:56:09;;;;;;;5.45;3.00;;;2.20;99.90;;;;;;5072229;28;20132;-80
2023/03/06 07:58:37;;;;;;;5.32;2.80;;;2.20;99.90;;;;;;5071756;28;20041;-80
2023/03/06 08:01:05;;;;;;;6.32;2.83;;;2.30;99.90;;;;;;5066997;28;20052;-80
2023/03/06 08:03:31;;;;;;;6.18;2.60;;;2.40;99.90;;;;;;5052556;28;20392;-80
2023/03/06 08:06:09;;;;;;;6.45;2.88;;;2.60;99.90;;;;;;5069538;28;20044;-81
2023/03/06 08:08:38;;;;;;;7.50;2.97;;;2.70;99.90;;;;;;5069027;28;20044;-81
2023/03/06 08:11:04;;;;;;;7.20;2.83;;;2.80;99.90;;;;;;5070467;28;20048;-81
2023/03/06 08:13:30;;;;;;;5.68;2.35;;;2.80;99.90;;;;;;5070121;28;20062;-81
2023/03/06 08:15:56;;;;;;;5.10;2.35;;;2.80;99.90;;;;;;5072516;28;20052;-81
2023/03/06 08:18:22;;;;;;;6.10;2.40;;;3.00;99.90;;;;;;5071308;28;20511;-82
2023/03/06 08:20:47;;;;;;;6.38;2.22;;;3.00;99.90;;;;;;5072241;28;20105;-82
2023/03/06 08:23:13;;;;;;;6.15;2.17;;;3.00;99.90;;;;;;5072158;28;20067;-82
2023/03/06 08:25:39;;;;;;;4.97;2.20;;;3.20;99.90;;;;;;5067903;28;20063;-82
2023/03/06 08:28:04;;;;;;;6.25;2.35;;;3.30;99.90;;;;;;5070619;28;20044;-82
2023/03/06 08:30:30;;;;;;;5.35;2.15;;;3.40;99.90;;;;;;5073443;28;20503;-82
2023/03/06 08:32:56;;;;;;;6.10;2.10;;;3.40;99.90;;;;;;5072498;28;20083;-82
2023/03/06 08:35:22;;;;;;;4.63;1.92;;;3.40;99.90;;;;;;5067824;28;20060;-82
2023/03/06 08:37:47;;;;;;;4.75;1.77;;;3.30;99.90;;;;;;5074615;28;20072;-82
2023/03/06 08:40:13;;;;;;;4.70;1.90;;;3.50;99.90;;;;;;5069729;28;20059;-83
2023/03/06 08:42:39;;;;;;;5.05;2.10;;;3.50;99.90;;;;;;5071111;28;20503;-82
2023/03/06 08:45:06;;;;;;;4.88;2.00;;;3.90;99.90;;;;;;5071201;28;20056;-82
2023/03/06 08:47:33;;;;;;;5.90;2.15;;;3.90;99.90;;;;;;5067769;28;20496;-82
2023/03/06 08:49:59;;;;;;;5.45;1.83;;;3.80;99.90;;;;;;5070915;28;20048;-82
2023/03/06 08:52:25;;;;;;;5.30;1.92;;;3.90;99.90;;;;;;5071853;28;20056;-82
2023/03/06 08:54:50;;;;;;;5.38;2.05;;;4.00;99.90;;;;;;5071032;28;20565;-82
2023/03/06 08:57:16;;;;;;;8.63;4.90;;;4.30;99.90;;;;;;5067910;28;20050;-82
2023/03/06 08:59:42;;;;;;;5.05;1.95;;;4.50;99.90;;;;;;5072041;28;20170;-81
2023/03/06 09:02:11;;;;;;;5.50;1.83;;;4.70;99.90;;;;;;5071817;28;20052;-81
2023/03/06 09:04:37;;;;;;;4.00;1.67;;;4.90;99.90;;;;;;5071661;28;20041;-80
2023/03/06 09:07:03;;;;;;;4.65;1.60;;;5.20;99.90;;;;;;5071722;28;20114;-81
2023/03/06 09:09:28;;;;;;;5.20;2.10;;;5.30;99.90;;;;;;5068975;28;20048;-81
2023/03/06 09:11:55;;;;;;;6.18;1.83;;;5.30;99.90;;;;;;5069760;28;20052;-81
2023/03/06 09:14:21;;;;;;;5.95;2.03;;;5.40;99.90;;;;;;5070719;28;20117;-81
2023/03/06 09:16:46;;;;;;;4.75;1.75;;;5.50;99.90;;;;;;5068695;28;20037;-81
2023/03/06 09:19:12;;;;;;;5.50;1.73;;;5.70;99.90;;;;;;5068952;28;20076;-81
2023/03/06 09:21:38;;;;;;;4.60;1.60;;;5.70;99.90;;;;;;5068391;28;20465;-81
2023/03/06 09:24:04;;;;;;;5.35;1.80;;;5.90;99.90;;;;;;5072000;28;20055;-83
2023/03/06 09:26:30;;;;;;;6.00;2.00;;;6.10;99.90;;;;;;5008695;28;20086;-82
2023/03/06 09:28:55;;;;;;;3.85;1.50;;;6.20;99.90;;;;;;5060343;28;20040;-82
2023/03/06 09:31:21;;;;;;;5.85;1.73;;;6.30;99.90;;;;;;5067762;28;20050;-82
2023/03/06 09:33:47;;;;;;;4.18;1.70;;;6.30;99.90;;;;;;5068127;28;20072;-82
2023/03/06 09:36:16;;;;;;;4.85;1.60;;;6.40;99.90;;;;;;5042929;28;20064;-82
2023/03/06 09:38:42;;;;;;;5.13;1.65;;;6.50;99.90;;;;;;5062785;28;20114;-82
2023/03/06 09:41:31;;;;;;;4.72;1.40;;;6.40;99.90;;;;;;5064319;28;20101;-83
2023/03/06 09:44:21;;;;;;;3.75;1.40;;;6.40;99.90;;;;;;5054566;28;20534;-83
2023/03/06 09:47:23;;;;;;;4.43;1.40;;;6.30;99.90;;;;;;5052709;28;20052;-83
2023/03/06 09:50:03;;;;;;;4.72;1.45;;;6.30;99.90;;;;;;5054528;28;20057;-83
2023/03/06 09:52:35;;;;;;;7.13;1.80;;;6.40;99.90;;;;;;5065998;28;20045;-83
2023/03/06 09:55:08;;;;;;;4.90;1.50;;;6.40;99.90;;;;;;5037711;28;20045;-83
2023/03/06 09:58:08;;;;;;;7.05;1.60;;;6.60;99.90;;;;;;5055624;28;20049;-83
2023/03/06 10:01:05;;;;;;;4.95;1.45;;;6.60;99.90;;;;;;5051615;28;20065;-82
2023/03/06 10:03:43;;;;;;;5.68;1.50;;;6.60;99.90;;;;;;5052471;28;20049;-82
2023/03/06 10:06:31;;;;;;;4.57;1.55;;;6.70;99.90;;;;;;5044332;28;20102;-82
2023/03/06 10:09:12;;;;;;;4.47;1.55;;;6.60;99.90;;;;;;5055896;28;20404;-82
2023/03/06 10:11:42;;;;;;;6.60;1.52;;;6.60;99.90;;;;;;5051648;28;20072;-82
2023/03/06 10:14:34;;;;;;;5.07;1.40;;;6.70;99.90;;;;;;5054676;28;20484;-83
2023/03/06 10:17:01;;;;;;;4.22;1.15;;;6.80;99.90;;;;;;5041217;28;20497;-82
2023/03/06 10:19:36;;;;;;;4.13;1.35;;;6.90;99.90;;;;;;5051116;28;20552;-82
2023/03/06 10:22:26;;;;;;;4.68;1.35;;;7.10;99.90;;;;;;5066850;28;20503;-82
2023/03/06 10:25:29;;;;;;;5.25;1.40;;;7.20;99.90;;;;;;5054232;28;20048;-81
2023/03/06 10:28:08;;;;;;;4.95;1.20;;;7.50;99.90;;;;;;5024014;28;20049;-82
2023/03/06 10:30:54;;;;;;;4.40;1.00;;;7.70;99.90;;;;;;5056865;28;20045;-81
2023/03/06 10:33:42;;;;;;;7.53;1.80;;;7.80;99.90;;;;;;5058052;28;20053;-82
2023/03/06 10:36:17;;;;;;;5.25;1.30;;;8.00;99.90;;;;;;5063286;28;20068;-81
2023/03/06 10:38:44;;;;;;;6.88;1.05;;;7.90;99.90;;;;;;5056182;28;20056;-82
2023/03/06 10:41:10;;;;;;;4.53;1.00;;;7.90;99.90;;;;;;5057919;28;20056;-81
2023/03/06 10:43:37;;;;;;;5.03;0.80;;;8.00;99.90;;;;;;5059034;28;20049;-81
2023/03/06 10:46:05;;;;;;;6.57;2.70;;;8.00;99.90;;;;;;5054712;28;20499;-82
2023/03/06 10:48:34;;;;;;;6.05;1.70;;;8.00;99.90;;;;;;5061779;28;20048;-81
2023/03/06 10:51:18;;;;;;;4.00;0.90;;;8.10;99.90;;;;;;5062175;28;20400;-81
2023/03/06 10:54:02;;;;;;;3.95;0.70;;;8.20;99.90;;;;;;5053797;28;20041;-81
2023/03/06 10:56:34;;;;;;;6.38;1.17;;;8.30;98.70;;;;;;5046684;28;20048;-81
2023/03/06 10:59:18;;;;;;;29.98;12.52;;;8.30;99.90;;;;;;5045635;28;20052;-80
2023/03/06 11:01:49;;;;;;;8.35;2.22;;;8.10;99.60;;;;;;5058287;28;20132;-80
2023/03/06 11:04:27;;;;;;;3.17;0.88;;;8.00;99.90;;;;;;5049483;28;20044;-80
2023/03/06 11:07:25;;;;;;;8.60;2.58;;;7.80;98.50;;;;;;5053133;28;20392;-80
2023/03/06 11:09:56;;;;;;;6.70;1.52;;;7.70;98.70;;;;;;5049877;28;20076;-81
2023/03/06 11:12:31;;;;;;;3.30;0.93;;;7.80;99.90;;;;;;5051064;28;20056;-80
2023/03/06 11:15:21;;;;;;;2.75;0.80;;;7.90;98.00;;;;;;5051254;28;20143;-81
2023/03/06 11:18:24;;;;;;;4.38;0.90;;;7.90;95.50;;;;;;5047921;28;20435;-80
2023/03/06 11:20:53;;;;;;;8.45;2.75;;;7.80;95.70;;;;;;5039313;28;20460;-80
2023/03/06 11:23:45;;;;;;;5.22;1.60;;;7.30;95.50;;;;;;5046841;28;20470;-80
2023/03/06 11:26:16;;;;;;;2.97;0.80;;;7.20;95.90;;;;;;5055127;28;20101;-80
2023/03/06 11:29:13;;;;;;;3.47;1.00;;;7.20;94.80;;;;;;5055350;28;20048;-80
2023/03/06 11:32:06;;;;;;;3.83;0.70;;;7.00;97.70;;;;;;5051158;28;20408;-80
2023/03/06 11:34:43;;;;;;;4.22;0.95;;;7.00;98.40;;;;;;5032238;28;20063;-80
2023/03/06 11:37:24;;;;;;;4.13;0.63;;;7.10;99.50;;;;;;5065204;28;20099;-80
2023/03/06 11:40:09;;;;;;;4.55;0.90;;;7.40;99.90;;;;;;5047747;28;20091;-80
2023/03/06 11:42:40;;;;;;;5.03;0.88;;;7.40;97.40;;;;;;5056641;28;20044;-80
2023/03/06 11:45:08;;;;;;;3.85;0.70;;;7.50;97.60;;;;;;5053443;28;20084;-80
2023/03/06 11:47:41;;;;;;;2.83;0.68;;;7.30;96.20;;;;;;5056771;28;20417;-80
2023/03/06 11:50:09;;;;;;;4.07;0.75;;;7.50;96.60;;;;;;5058461;28;20080;-80
2023/03/06 11:52:55;;;;;;;2.15;0.60;;;7.60;95.80;;;;;;5057021;28;20110;-80
2023/03/06 11:55:45;;;;;;;4.93;0.85;;;7.60;97.30;;;;;;5061428;28;20362;-79
2023/03/06 11:58:48;;;;;;;3.95;0.82;;;7.70;97.60;;;;;;5052843;28;20299;-80
2023/03/06 12:01:39;;;;;;;3.40;0.73;;;7.90;95.30;;;;;;5053687;28;20045;-79
2023/03/06 12:04:32;;;;;;;2.65;0.75;;;8.10;94.50;;;;;;5054524;28;20315;-79
2023/03/06 12:07:33;;;;;;;4.22;0.90;;;8.20;97.00;;;;;;5057858;28;20056;-78
2023/03/06 12:10:14;;;;;;;3.42;0.90;;;8.40;97.40;;;;;;5063248;28;20120;-80
2023/03/06 12:13:04;;;;;;;4.78;0.73;;;8.40;96.80;;;;;;5051514;28;20049;-80
2023/03/06 12:15:49;;;;;;;3.58;0.90;;;8.40;97.10;;;;;;5050489;28;20094;-79
2023/03/06 12:18:37;;;;;;;4.45;0.90;;;8.40;96.60;;;;;;5048757;28;20260;-79
2023/03/06 12:21:32;;;;;;;4.65;0.90;;;8.20;96.90;;;;;;5054901;28;20076;-80
2023/03/06 12:24:24;;;;;;;2.45;0.70;;;8.20;97.10;;;;;;5036919;28;20106;-79
2023/03/06 12:26:56;;;;;;;3.70;0.85;;;8.10;96.70;;;;;;5062469;28;20056;-79
2023/03/06 12:29:27;;;;;;;2.77;0.80;;;8.10;97.10;;;;;;5048354;28;20311;-79
2023/03/06 12:32:13;;;;;;;4.80;0.80;;;8.10;97.10;;;;;;5057301;28;20291;-79
2023/03/06 12:34:50;;;;;;;3.38;0.85;;;8.10;95.40;;;;;;5056600;28;20433;-79
2023/03/06 12:37:20;;;;;;;3.50;0.80;;;8.10;96.40;;;;;;5064486;28;20052;-79
2023/03/06 12:40:05;;;;;;;3.80;0.73;;;8.00;97.00;;;;;;5060617;28;20703;-79
2023/03/06 12:42:46;;;;;;;3.88;0.80;;;8.00;96.10;;;;;;5064056;28;20057;-79
2023/03/06 12:45:35;;;;;;;2.90;0.77;;;7.90;96.60;;;;;;5058216;28;20048;-79
2023/03/06 12:48:03;;;;;;;3.05;0.75;;;7.80;95.90;;;;;;5056702;28;20119;-79
2023/03/06 12:50:32;;;;;;;3.53;0.80;;;7.80;97.10;;;;;;5055466;28;20504;-79
2023/03/06 12:53:02;;;;;;;3.50;0.90;;;7.80;97.40;;;;;;5051211;28;20098;-79
2023/03/06 12:55:45;;;;;;;3.85;0.70;;;7.70;98.60;;;;;;5037412;28;20056;-79
2023/03/06 12:58:30;;;;;;;3.25;0.90;;;7.70;99.00;;;;;;5052345;28;20268;-79
2023/03/06 13:01:26;;;;;;;3.58;0.93;;;7.50;97.30;;;;;;5064623;28;20067;-79
2023/03/06 13:04:16;;;;;;;3.28;0.80;;;7.40;97.90;;;;;;5066149;28;20056;-79
2023/03/06 13:07:07;;;;;;;7.15;1.00;;;7.30;98.10;;;;;;5058173;28;20037;-79
2023/03/06 13:09:39;;;;;;;3.30;0.80;;;7.20;98.20;;;;;;5038311;28;20048;-79
2023/03/06 13:12:08;;;;;;;3.25;0.82;;;7.10;97.90;;;;;;5063959;28;20056;-79